Time,TemperatureF,DewpointF,PressureIn,WindDirection,WindDirectionDegrees,WindSpeedMPH,WindSpeedGustMPH,Humidity,HourlyPrecipIn,Conditions,Clouds,dailyrainin,SoftwareType,DateUTC
2013-03-03 00:11:00,30.2,20.0,30.22,NNW,328,2.0,7.0,66,0.00,,,0.00,weatherlink.com 1.10,2013-03-03 06:11:00,
2013-03-03 00:26:00,30.0,20.0,30.21,NW,309,2.0,7.0,66,0.00,,,0.00,weatherlink.com 1.10,2013-03-03 06:26:00,
2013-03-03 00:41:00,29.7,20.0,30.21,NNE,13,0.0,5.0,67,0.00,,,0.00,weatherlink.com 1.10,2013-03-03 06:41:00,
2013-03-03 00:56:00,29.0,19.0,30.21,WNW,295,3.0,4.0,67,0.00,,,0.00,weatherlink.com 1.10,2013-03-03 06:56:00,
2013-03-03 01:11:00,28.5,19.0,30.21,NW,325,1.0,5.0,68,0.00,,,0.00,weatherlink.com 1.10,2013-03-03 07:11:00,
2013-03-03 01:26:00,28.2,19.0,30.21,NW,309,2.0,3.0,69,0.00,,,0.00,weatherlink.com 1.10,2013-03-03 07:26:00,
2013-03-03 01:41:00,27.9,19.0,30.21,NNW,332,0.0,3.0,69,0.00,,,0.00,weatherlink.com 1.10,2013-03-03 07:41:00,
2013-03-03 01:56:00,27.8,20.0,30.20,NW,313,1.0,5.0,72,0.00,,,0.00,weatherlink.com 1.10,2013-03-03 07:56:00,
2013-03-03 02:11:00,27.5,20.0,30.20,NW,309,1.0,4.0,72,0.00,,,0.00,weatherlink.com 1.10,2013-03-03 08:11:00,
2013-03-03 02:26:00,27.1,20.0,30.20,WNW,290,1.0,2.0,75,0.00,,,0.00,weatherlink.com 1.10,2013-03-03 08:26:00,
2013-03-03 02:41:00,26.8,21.0,30.20,NW,305,0.0,2.0,77,0.00,,,0.00,weatherlink.com 1.10,2013-03-03 08:41:00,
2013-03-03 02:56:00,26.5,21.0,30.20,WNW,286,1.0,3.0,78,0.00,,,0.00,weatherlink.com 1.10,2013-03-03 08:56:00,
2013-03-03 03:11:00,26.5,21.0,30.20,WNW,295,2.0,4.0,78,0.00,,,0.00,weatherlink.com 1.10,2013-03-03 09:11:00,
2013-03-03 03:26:00,26.5,21.0,30.20,WNW,283,2.0,5.0,78,0.00,,,0.00,weatherlink.com 1.10,2013-03-03 09:26:00,
2013-03-03 03:41:00,26.2,20.0,30.20,NW,311,0.0,4.0,77,0.00,,,0.00,weatherlink.com 1.10,2013-03-03 09:41:00,
2013-03-03 03:56:00,25.7,20.0,30.20,NW,311,0.0,2.0,79,0.00,,,0.00,weatherlink.com 1.10,2013-03-03 09:56:00,
2013-03-03 04:11:00,24.8,20.0,30.20,NW,307,0.0,2.0,81,0.00,,,0.00,weatherlink.com 1.10,2013-03-03 10:11:00,
2013-03-03 04:26:00,23.9,20.0,30.20,NW,307,0.0,0.0,85,0.00,,,0.00,weatherlink.com 1.10,2013-03-03 10:26:00,
2013-03-03 04:41:00,23.0,19.0,30.20,NW,307,0.0,0.0,85,0.00,,,0.00,weatherlink.com 1.10,2013-03-03 10:41:00,
2013-03-03 04:56:00,22.4,19.0,30.20,NW,307,0.0,0.0,87,0.00,,,0.00,weatherlink.com 1.10,2013-03-03 10:56:00,
2013-03-03 05:11:00,22.0,19.0,30.20,NW,307,0.0,0.0,89,0.00,,,0.00,weatherlink.com 1.10,2013-03-03 11:11:00,
2013-03-03 05:26:00,21.5,19.0,30.20,NW,307,0.0,0.0,89,0.00,,,0.00,weatherlink.com 1.10,2013-03-03 11:26:00,
2013-03-03 05:41:00,21.1,19.0,30.20,NW,307,0.0,0.0,90,0.00,,,0.00,weatherlink.com 1.10,2013-03-03 11:41:00,
2013-03-03 05:56:00,20.8,19.0,30.20,NW,307,0.0,0.0,91,0.00,,,0.00,weatherlink.com 1.10,2013-03-03 11:56:00,
2013-03-03 06:11:00,20.6,18.0,30.20,NW,307,0.0,0.0,91,0.00,,,0.00,weatherlink.com 1.10,2013-03-03 12:11:00,
2013-03-03 06:26:00,20.5,18.0,30.20,NW,307,0.0,0.0,91,0.00,,,0.00,weatherlink.com 1.10,2013-03-03 12:26:00,
2013-03-03 06:41:00,20.3,18.0,30.20,NW,307,0.0,0.0,91,0.00,,,0.00,weatherlink.com 1.10,2013-03-03 12:41:00,
2013-03-03 06:57:00,20.5,19.0,30.20,NW,307,0.0,0.0,92,0.00,,,0.00,weatherlink.com 1.10,2013-03-03 12:57:00,
2013-03-03 07:12:00,21.8,20.0,30.20,NW,307,0.0,1.0,93,0.00,,,0.00,weatherlink.com 1.10,2013-03-03 13:12:00,
2013-03-03 07:27:00,25.4,22.0,30.21,NW,313,2.0,3.0,87,0.00,,,0.00,weatherlink.com 1.10,2013-03-03 13:27:00,
2013-03-03 07:42:00,27.9,23.0,30.21,WNW,303,0.0,4.0,82,0.00,,,0.00,weatherlink.com 1.10,2013-03-03 13:42:00,
2013-03-03 07:57:00,29.6,24.0,30.21,WNW,286,1.0,4.0,78,0.00,,,0.00,weatherlink.com 1.10,2013-03-03 13:57:00,
2013-03-03 08:12:00,31.3,24.0,30.21,West,275,2.0,5.0,74,0.00,,,0.00,weatherlink.com 1.10,2013-03-03 14:12:00,
2013-03-03 08:27:00,32.1,23.0,30.21,NNE,32,4.0,4.0,68,0.00,,,0.00,weatherlink.com 1.10,2013-03-03 14:27:00,
2013-03-03 08:42:00,32.8,23.0,30.22,NW,307,3.0,4.0,68,0.00,,,0.00,weatherlink.com 1.10,2013-03-03 14:42:00,
2013-03-03 08:57:00,33.3,23.0,30.22,NW,309,0.0,4.0,65,0.00,,,0.00,weatherlink.com 1.10,2013-03-03 14:57:00,
2013-03-03 09:12:00,33.4,22.0,30.22,West,281,3.0,5.0,64,0.00,,,0.00,weatherlink.com 1.10,2013-03-03 15:12:00,
2013-03-03 09:27:00,33.9,22.0,30.22,NW,315,1.0,8.0,62,0.00,,,0.00,weatherlink.com 1.10,2013-03-03 15:27:00,
2013-03-03 09:42:00,34.6,23.0,30.22,WSW,253,3.0,10.0,63,0.00,,,0.00,weatherlink.com 1.10,2013-03-03 15:42:00,
2013-03-03 09:57:00,34.5,22.0,30.22,North,6,5.0,7.0,60,0.00,,,0.00,weatherlink.com 1.10,2013-03-03 15:57:00,
2013-03-03 10:12:00,35.1,24.0,30.22,SW,232,6.0,8.0,64,0.00,,,0.00,weatherlink.com 1.10,2013-03-03 16:12:00,
2013-03-03 10:27:00,36.2,23.0,30.22,WSW,240,3.0,9.0,60,0.00,,,0.00,weatherlink.com 1.10,2013-03-03 16:27:00,
2013-03-03 10:42:00,36.6,23.0,30.22,SW,226,1.0,6.0,59,0.00,,,0.00,weatherlink.com 1.10,2013-03-03 16:42:00,
2013-03-03 10:57:00,36.5,24.0,30.21,SW,220,4.0,9.0,60,0.00,,,0.00,weatherlink.com 1.10,2013-03-03 16:57:00,
2013-03-03 11:12:00,36.8,22.0,30.21,SW,217,4.0,8.0,55,0.00,,,0.00,weatherlink.com 1.10,2013-03-03 17:12:00,
2013-03-03 11:27:00,37.8,24.0,30.21,NNW,340,3.0,10.0,57,0.00,,,0.00,weatherlink.com 1.10,2013-03-03 17:27:00,
2013-03-03 11:42:00,37.5,23.0,30.20,SSW,192,3.0,9.0,56,0.00,,,0.00,weatherlink.com 1.10,2013-03-03 17:42:00,
2013-03-03 11:57:00,37.7,21.0,30.19,SW,216,3.0,6.0,52,0.00,,,0.00,weatherlink.com 1.10,2013-03-03 17:57:00,
2013-03-03 12:12:00,38.9,23.0,30.18,NW,319,2.0,11.0,53,0.00,,,0.00,weatherlink.com 1.10,2013-03-03 18:12:00,
2013-03-03 12:27:00,38.7,25.0,30.18,SSW,207,2.0,9.0,58,0.00,,,0.00,weatherlink.com 1.10,2013-03-03 18:27:00,
2013-03-03 12:42:00,39.5,22.0,30.17,WSW,251,1.0,8.0,49,0.00,,,0.00,weatherlink.com 1.10,2013-03-03 18:42:00,
2013-03-03 12:57:00,40.6,25.0,30.17,WSW,246,8.0,10.0,55,0.00,,,0.00,weatherlink.com 1.10,2013-03-03 18:57:00,
2013-03-03 13:12:00,41.6,23.0,30.16,West,274,1.0,8.0,47,0.00,,,0.00,weatherlink.com 1.10,2013-03-03 19:12:00,
2013-03-03 13:27:00,41.9,25.0,30.16,SSW,213,2.0,9.0,52,0.00,,,0.00,weatherlink.com 1.10,2013-03-03 19:27:00,
2013-03-03 13:42:00,42.4,25.0,30.15,WNW,292,2.0,10.0,51,0.00,,,0.00,weatherlink.com 1.10,2013-03-03 19:42:00,
2013-03-03 13:57:00,42.1,24.0,30.14,WSW,248,3.0,10.0,49,0.00,,,0.00,weatherlink.com 1.10,2013-03-03 19:57:00,
2013-03-03 14:12:00,41.6,22.0,30.14,SSW,204,4.0,8.0,46,0.00,,,0.00,weatherlink.com 1.10,2013-03-03 20:12:00,
2013-03-03 14:27:00,42.2,22.0,30.13,WSW,246,0.0,10.0,45,0.00,,,0.00,weatherlink.com 1.10,2013-03-03 20:27:00,
2013-03-03 14:43:00,41.9,24.0,30.13,WSW,239,2.0,7.0,49,0.00,,,0.00,weatherlink.com 1.10,2013-03-03 20:43:00,
2013-03-03 14:58:00,42.7,24.0,30.13,NW,307,2.0,8.0,47,0.00,,,0.00,weatherlink.com 1.10,2013-03-03 20:58:00,
2013-03-03 15:13:00,42.0,21.0,30.12,NW,317,0.0,5.0,43,0.00,,,0.00,weatherlink.com 1.10,2013-03-03 21:13:00,
2013-03-03 15:28:00,40.9,21.0,30.12,SSW,210,1.0,7.0,45,0.00,,,0.00,weatherlink.com 1.10,2013-03-03 21:28:00,
2013-03-03 15:43:00,40.8,20.0,30.11,South,182,1.0,5.0,44,0.00,,,0.00,weatherlink.com 1.10,2013-03-03 21:43:00,
2013-03-03 15:58:00,40.6,23.0,30.11,West,274,2.0,6.0,50,0.00,,,0.00,weatherlink.com 1.10,2013-03-03 21:58:00,
2013-03-03 16:13:00,40.7,23.0,30.12,WSW,253,4.0,7.0,49,0.00,,,0.00,weatherlink.com 1.10,2013-03-03 22:13:00,
2013-03-03 16:28:00,40.6,20.0,30.11,SW,224,1.0,5.0,44,0.00,,,0.00,weatherlink.com 1.10,2013-03-03 22:28:00,
2013-03-03 16:43:00,40.2,21.0,30.11,SW,216,0.0,5.0,46,0.00,,,0.00,weatherlink.com 1.10,2013-03-03 22:43:00,
2013-03-03 16:58:00,39.8,19.0,30.11,SW,228,0.0,2.0,43,0.00,,,0.00,weatherlink.com 1.10,2013-03-03 22:58:00,
2013-03-03 17:13:00,39.4,20.0,30.11,SW,226,0.0,0.0,45,0.00,,,0.00,weatherlink.com 1.10,2013-03-03 23:13:00,
2013-03-03 17:28:00,39.0,20.0,30.10,SSW,203,0.0,2.0,46,0.00,,,0.00,weatherlink.com 1.10,2013-03-03 23:28:00,
2013-03-03 17:43:00,38.6,21.0,30.10,SSW,203,0.0,0.0,50,0.00,,,0.00,weatherlink.com 1.10,2013-03-03 23:43:00,
2013-03-03 17:58:00,38.0,23.0,30.10,SSW,203,0.0,0.0,55,0.00,,,0.00,weatherlink.com 1.10,2013-03-03 23:58:00,
2013-03-03 18:13:00,37.4,24.0,30.10,SSW,203,0.0,0.0,58,0.00,,,0.00,weatherlink.com 1.10,2013-03-04 00:13:00,
2013-03-03 18:28:00,36.9,24.0,30.11,SSW,203,0.0,0.0,61,0.00,,,0.00,weatherlink.com 1.10,2013-03-04 00:28:00,
2013-03-03 18:43:00,36.4,23.0,30.11,SSW,203,0.0,0.0,59,0.00,,,0.00,weatherlink.com 1.10,2013-03-04 00:43:00,
2013-03-03 18:58:00,35.9,25.0,30.10,SSW,203,0.0,0.0,65,0.00,,,0.00,weatherlink.com 1.10,2013-03-04 00:58:00,
2013-03-03 19:13:00,35.6,26.0,30.10,SSW,203,0.0,0.0,69,0.00,,,0.00,weatherlink.com 1.10,2013-03-04 01:13:00,
2013-03-03 19:28:00,35.2,27.0,30.11,SSW,203,0.0,0.0,72,0.00,,,0.00,weatherlink.com 1.10,2013-03-04 01:28:00,
2013-03-03 19:43:00,35.0,27.0,30.11,SSW,203,0.0,0.0,73,0.00,,,0.00,weatherlink.com 1.10,2013-03-04 01:43:00,
2013-03-03 19:58:00,35.1,29.0,30.11,SSW,203,0.0,0.0,79,0.00,,,0.00,weatherlink.com 1.10,2013-03-04 01:58:00,
2013-03-03 20:13:00,35.2,29.0,30.11,SSW,203,0.0,0.0,78,0.00,,,0.00,weatherlink.com 1.10,2013-03-04 02:13:00,
2013-03-03 20:28:00,35.3,30.0,30.11,SSW,203,0.0,0.0,80,0.00,,,0.00,weatherlink.com 1.10,2013-03-04 02:28:00,
2013-03-03 20:43:00,35.4,30.0,30.11,SSW,203,0.0,0.0,79,0.00,,,0.00,weatherlink.com 1.10,2013-03-04 02:43:00,
2013-03-03 20:58:00,35.4,29.0,30.12,SSW,203,0.0,0.0,78,0.00,,,0.00,weatherlink.com 1.10,2013-03-04 02:58:00,
2013-03-03 21:13:00,35.5,30.0,30.12,SSW,203,0.0,0.0,80,0.00,,,0.00,weatherlink.com 1.10,2013-03-04 03:13:00,
2013-03-03 21:28:00,35.5,30.0,30.11,SSW,203,0.0,0.0,80,0.00,,,0.00,weatherlink.com 1.10,2013-03-04 03:28:00,
2013-03-03 21:43:00,35.5,30.0,30.11,SSW,203,0.0,0.0,80,0.00,,,0.00,weatherlink.com 1.10,2013-03-04 03:43:00,
2013-03-03 21:58:00,35.5,29.0,30.10,SSW,203,0.0,0.0,78,0.00,,,0.00,weatherlink.com 1.10,2013-03-04 03:58:00,
2013-03-03 22:13:00,35.5,29.0,30.10,SSW,203,0.0,0.0,78,0.00,,,0.00,weatherlink.com 1.10,2013-03-04 04:13:00,
2013-03-03 22:28:00,35.5,29.0,30.10,SSW,203,0.0,0.0,77,0.00,,,0.00,weatherlink.com 1.10,2013-03-04 04:28:00,
2013-03-03 22:44:00,35.6,27.0,30.10,SSE,166,0.0,1.0,71,0.00,,,0.00,weatherlink.com 1.10,2013-03-04 04:44:00,
2013-03-03 22:58:00,35.6,28.0,30.11,SSE,166,0.0,0.0,74,0.00,,,0.00,weatherlink.com 1.10,2013-03-04 04:58:00,
2013-03-03 23:13:00,35.6,29.0,30.11,SSE,166,0.0,0.0,76,0.00,,,0.00,weatherlink.com 1.10,2013-03-04 05:13:00,
2013-03-03 23:28:00,35.6,29.0,30.11,SSE,166,0.0,0.0,77,0.00,,,0.00,weatherlink.com 1.10,2013-03-04 05:28:00,
2013-03-03 23:43:00,35.6,29.0,30.11,SSE,166,0.0,0.0,77,0.00,,,0.00,weatherlink.com 1.10,2013-03-04 05:43:00,
2013-03-03 23:58:00,35.6,29.0,30.11,SE,146,1.0,1.0,76,0.00,,,0.00,weatherlink.com 1.10,2013-03-04 05:58:00,